Time;durP1;ratioP1;P1;durP2;ratioP2;P2;SDS_P1;SDS_P2;PMS_P1;PMS_P2;Temp;Humidity;BMP_temperature;BMP_pressure;BME280_temperature;BME280_humidity;BME280_pressure;Samples;Min_cycle;Max_cycle;Signal;HPM_P1;HPM_P2
2022/10/22 00:02:52;;;;;;;2.72;2.15;;;;;;;12.54;100.00;100710.97;6271505;28;20049;-74
2022/10/22 00:05:53;;;;;;;4.25;2.05;;;;;;;12.53;100.00;100703.13;6271110;28;20049;-74
2022/10/22 00:08:55;;;;;;;4.72;2.28;;;;;;;12.51;100.00;100713.78;6271540;28;20049;-74
2022/10/22 00:11:56;;;;;;;2.83;1.95;;;;;;;12.50;100.00;100713.91;6271279;28;20060;-74
2022/10/22 00:14:59;;;;;;;6.82;2.17;;;;;;;12.48;100.00;100715.75;6271040;28;20068;-74
2022/10/22 00:18:00;;;;;;;4.50;1.90;;;;;;;12.44;100.00;100715.09;6271232;28;20072;-74
2022/10/22 00:21:02;;;;;;;2.72;2.00;;;;;;;12.46;100.00;100717.66;6271209;28;20053;-74
2022/10/22 00:24:03;;;;;;;8.07;2.40;;;;;;;12.44;100.00;100723.00;6271206;28;20084;-74
2022/10/22 00:27:07;;;;;;;4.55;2.35;;;;;;;12.41;100.00;100715.31;6271142;28;20393;-74
2022/10/22 00:30:11;;;;;;;2.15;1.75;;;;;;;12.40;100.00;100706.56;6270914;28;20516;-74
2022/10/22 00:33:12;;;;;;;6.15;1.92;;;;;;;12.38;100.00;100704.94;6271543;28;20049;-74
2022/10/22 00:36:14;;;;;;;3.60;2.13;;;;;;;12.34;100.00;100708.69;6270877;28;20049;-74
2022/10/22 00:39:17;;;;;;;6.45;1.63;;;;;;;12.30;100.00;100710.66;6270958;28;20053;-74
2022/10/22 00:42:22;;;;;;;2.13;1.77;;;;;;;12.24;100.00;100708.41;6271033;28;20056;-74
2022/10/22 00:45:26;;;;;;;2.95;1.80;;;;;;;12.21;100.00;100726.19;6270710;28;20049;-76
2022/10/22 00:48:32;;;;;;;5.60;1.90;;;;;;;12.18;100.00;100730.72;6271092;28;20056;-74
2022/10/22 00:51:35;;;;;;;2.88;1.98;;;;;;;12.13;100.00;100732.78;6272152;28;20134;-74
2022/10/22 00:54:38;;;;;;;2.38;1.55;;;;;;;12.09;100.00;100736.53;6275530;28;20053;-75
2022/10/22 00:57:40;;;;;;;2.47;1.70;;;;;;;12.08;100.00;100739.25;6275793;28;20049;-74
2022/10/22 01:00:43;;;;;;;4.90;1.88;;;;;;;12.05;100.00;100739.47;6275479;28;20060;-74
2022/10/22 01:03:44;;;;;;;3.50;1.92;;;;;;;12.04;100.00;100735.97;6275168;28;20056;-74
2022/10/22 01:06:46;;;;;;;3.90;2.08;;;;;;;12.02;100.00;100731.72;6275344;28;20049;-74
2022/10/22 01:09:58;;;;;;;2.30;1.90;;;;;;;12.00;100.00;100720.44;6275084;28;20079;-74
2022/10/22 01:13:11;;;;;;;2.85;1.65;;;;;;;11.96;100.00;100719.78;6275268;28;20048;-74
2022/10/22 01:16:21;;;;;;;3.03;1.85;;;;;;;11.96;100.00;100721.56;6274708;28;20045;-74
2022/10/22 01:19:40;;;;;;;3.95;1.90;;;;;;;11.92;100.00;100720.91;6275324;28;20053;-74
2022/10/22 01:22:52;;;;;;;3.20;1.77;;;;;;;11.91;100.00;100730.59;6274851;28;20052;-74
2022/10/22 01:26:00;;;;;;;4.32;2.42;;;;;;;11.92;100.00;100723.53;6274770;28;20045;-74
2022/10/22 01:29:09;;;;;;;3.38;2.03;;;;;;;11.91;100.00;100733.22;6274856;28;20053;-74
2022/10/22 01:32:15;;;;;;;2.17;1.50;;;;;;;11.94;100.00;100737.44;6274816;28;20048;-74
2022/10/22 01:35:21;;;;;;;4.50;2.22;;;;;;;11.99;100.00;100730.13;6274393;28;20060;-74
2022/10/22 01:38:25;;;;;;;3.28;2.05;;;;;;;12.03;100.00;100725.50;6274722;28;20408;-74
2022/10/22 01:41:27;;;;;;;3.60;1.73;;;;;;;12.06;100.00;100726.19;6275090;28;20052;-74
2022/10/22 01:44:31;;;;;;;2.25;1.73;;;;;;;12.06;100.00;100733.25;6278049;28;20048;-74
2022/10/22 01:47:42;;;;;;;4.85;2.17;;;;;;;12.06;100.00;100727.97;6277408;28;20049;-74
2022/10/22 01:50:55;;;;;;;6.60;2.00;;;;;;;12.06;100.00;100728.81;6277670;28;20060;-74
2022/10/22 01:54:02;;;;;;;3.90;1.98;;;;;;;12.06;100.00;100731.44;6276011;28;20420;-74
2022/10/22 01:57:10;;;;;;;2.40;1.70;;;;;;;12.08;100.00;100719.06;6275957;28;20543;-74
2022/10/22 02:00:15;;;;;;;3.25;2.08;;;;;;;12.05;100.00;100721.88;6274809;28;20484;-74
2022/10/22 02:03:24;;;;;;;3.35;1.90;;;;;;;12.05;100.00;100726.28;6274043;28;20052;-74
2022/10/22 02:06:29;;;;;;;4.78;1.98;;;;;;;12.03;100.00;100718.47;6274198;28;20052;-74
2022/10/22 02:09:31;;;;;;;2.95;1.70;;;;;;;12.02;100.00;100727.31;6274631;28;20069;-74
2022/10/22 02:12:34;;;;;;;2.53;1.85;;;;;;;11.99;100.00;100726.63;6273862;28;20053;-74
2022/10/22 02:15:38;;;;;;;1.65;1.55;;;;;;;11.97;100.00;100729.38;6273395;28;20420;-74
2022/10/22 02:18:44;;;;;;;3.83;1.90;;;;;;;11.96;100.00;100740.00;6273808;28;20049;-74
2022/10/22 02:21:46;;;;;;;5.28;2.50;;;;;;;11.97;100.00;100736.44;6273534;28;20053;-74
2022/10/22 02:24:49;;;;;;;3.15;2.22;;;;;;;11.98;100.00;100736.31;6273280;28;20446;-74
2022/10/22 02:27:57;;;;;;;2.72;2.17;;;;;;;11.99;100.00;100742.44;6273237;28;20053;-74
2022/10/22 02:31:06;;;;;;;2.47;2.03;;;;;;;12.00;100.00;100744.16;6273335;28;20059;-74
2022/10/22 02:34:12;;;;;;;3.75;2.17;;;;;;;11.98;100.00;100751.28;6272928;28;20053;-75
2022/10/22 02:37:15;;;;;;;2.97;1.80;;;;;;;12.00;100.00;100745.00;6273295;28;20578;-74
2022/10/22 02:40:18;;;;;;;2.63;1.75;;;;;;;12.07;100.00;100750.72;6272956;28;20412;-74
2022/10/22 02:43:19;;;;;;;5.22;2.72;;;;;;;12.12;100.00;100756.56;6273362;28;20049;-74
2022/10/22 02:46:23;;;;;;;5.38;2.72;;;;;;;12.10;100.00;100745.28;6272660;28;20412;-74
2022/10/22 02:49:24;;;;;;;3.30;2.50;;;;;;;12.11;100.00;100750.47;6270777;28;20496;-74
2022/10/22 02:52:26;;;;;;;3.97;2.58;;;;;;;12.13;100.00;100753.03;6272873;28;20060;-74
2022/10/22 02:55:27;;;;;;;3.45;2.60;;;;;;;12.14;100.00;100752.06;6272786;28;20053;-74
2022/10/22 02:58:29;;;;;;;5.63;2.35;;;;;;;12.15;100.00;100751.97;6272853;28;20045;-74
2022/10/22 03:01:31;;;;;;;5.93;2.42;;;;;;;12.19;100.00;100745.59;6272659;28;20049;-75
2022/10/22 03:04:33;;;;;;;4.03;2.65;;;;;;;12.26;100.00;100746.06;6272315;28;20052;-74
2022/10/22 03:07:34;;;;;;;8.07;2.83;;;;;;;12.28;100.00;100741.56;6272444;28;20045;-74
2022/10/22 03:10:36;;;;;;;4.95;1.85;;;;;;;12.31;100.00;100745.78;6272519;28;20052;-74
2022/10/22 03:13:37;;;;;;;3.70;1.85;;;;;;;12.30;100.00;100742.28;6272200;28;20452;-74
2022/10/22 03:16:40;;;;;;;2.45;1.77;;;;;;;12.26;100.00;100743.41;6272210;28;20041;-74
2022/10/22 03:19:41;;;;;;;5.30;2.45;;;;;;;12.18;100.00;100746.53;6272247;28;20052;-74
2022/10/22 03:22:44;;;;;;;3.15;2.28;;;;;;;12.14;100.00;100744.16;6272489;28;20521;-74
2022/10/22 03:25:48;;;;;;;4.43;2.28;;;;;;;12.14;100.00;100754.72;6272012;28;20049;-74
2022/10/22 03:28:49;;;;;;;4.40;2.45;;;;;;;12.10;100.00;100746.13;6271875;28;20420;-74
2022/10/22 03:31:53;;;;;;;3.97;2.30;;;;;;;12.06;100.00;100743.78;6271886;28;20056;-74
2022/10/22 03:34:54;;;;;;;3.17;2.20;;;;;;;12.00;100.00;100744.16;6271642;28;20462;-74
2022/10/22 03:37:55;;;;;;;2.15;1.88;;;;;;;11.95;100.00;100752.31;6272110;28;20049;-74
2022/10/22 03:40:57;;;;;;;3.13;1.90;;;;;;;11.91;100.00;100751.66;6271581;28;20050;-74
2022/10/22 03:44:00;;;;;;;3.97;2.00;;;;;;;11.88;100.00;100745.72;6271202;28;20056;-74
2022/10/22 03:47:02;;;;;;;2.80;1.95;;;;;;;11.79;100.00;100749.69;6271978;28;20049;-74
2022/10/22 03:50:05;;;;;;;2.90;2.10;;;;;;;11.76;100.00;100762.19;6271371;28;20398;-74
2022/10/22 03:53:09;;;;;;;5.45;3.05;;;;;;;11.75;100.00;100765.75;6271548;28;20424;-74
2022/10/22 03:56:11;;;;;;;3.42;2.17;;;;;;;11.73;100.00;100765.84;6271306;28;20049;-74
2022/10/22 03:59:13;;;;;;;4.25;2.10;;;;;;;11.71;100.00;100759.81;6271469;28;20409;-74
2022/10/22 04:02:16;;;;;;;4.85;2.40;;;;;;;11.66;100.00;100767.97;6271123;28;20638;-74
2022/10/22 04:05:18;;;;;;;4.28;2.15;;;;;;;11.64;100.00;100784.81;6271253;28;20045;-74
2022/10/22 04:08:19;;;;;;;3.92;2.25;;;;;;;11.61;100.00;100787.63;6271477;28;20045;-73
2022/10/22 04:11:20;;;;;;;3.55;2.22;;;;;;;11.59;100.00;100776.34;6271078;28;20132;-74
2022/10/22 04:14:22;;;;;;;4.15;2.30;;;;;;;11.58;100.00;100772.88;6271138;28;20075;-74
2022/10/22 04:17:25;;;;;;;3.45;2.50;;;;;;;11.58;100.00;100772.88;6271247;28;20045;-73
2022/10/22 04:20:26;;;;;;;3.05;2.13;;;;;;;11.59;100.00;100784.22;6271139;28;20060;-74
2022/10/22 04:23:28;;;;;;;4.00;2.67;;;;;;;11.59;100.00;100779.81;6271258;28;20059;-74
2022/10/22 04:26:29;;;;;;;4.07;2.17;;;;;;;11.58;100.00;100780.75;6271944;28;20045;-74
2022/10/22 04:29:30;;;;;;;3.30;2.45;;;;;;;11.57;100.00;100783.47;6276280;28;20056;-74
2022/10/22 04:32:33;;;;;;;3.03;1.98;;;;;;;11.55;100.00;100785.34;6275860;28;20048;-74
2022/10/22 04:35:38;;;;;;;3.03;1.92;;;;;;;11.54;100.00;100795.03;6275776;28;20049;-74
2022/10/22 04:38:40;;;;;;;4.35;2.28;;;;;;;11.51;100.00;100795.19;6275951;28;20048;-74
2022/10/22 04:41:41;;;;;;;3.08;1.88;;;;;;;11.50;100.00;100801.41;6275752;28;20052;-74
2022/10/22 04:44:43;;;;;;;4.72;2.22;;;;;;;11.49;100.00;100794.44;6275528;28;20056;-74
2022/10/22 04:47:46;;;;;;;2.58;1.85;;;;;;;11.49;100.00;100798.81;6275926;28;20179;-74
2022/10/22 04:50:47;;;;;;;2.10;1.80;;;;;;;11.48;100.00;100808.50;6275400;28;20041;-74
2022/10/22 04:53:49;;;;;;;2.78;2.08;;;;;;;11.47;100.00;100792.81;6275596;28;20061;-74
2022/10/22 04:56:51;;;;;;;3.00;2.08;;;;;;;11.49;100.00;100793.56;6275869;28;20052;-74
2022/10/22 04:59:52;;;;;;;4.07;2.05;;;;;;;11.41;100.00;100800.13;6275347;28;20052;-74
2022/10/22 05:02:57;;;;;;;4.68;2.17;;;;;;;11.41;100.00;100796.66;6275407;28;20068;-74
2022/10/22 05:06:00;;;;;;;2.95;2.38;;;;;;;11.39;100.00;100804.59;6275026;28;20049;-74
2022/10/22 05:09:05;;;;;;;6.88;1.88;;;;;;;11.39;100.00;100806.38;6275242;28;20041;-74
2022/10/22 05:12:06;;;;;;;4.00;1.80;;;;;;;11.40;100.00;100803.69;6275099;28;20052;-74
2022/10/22 05:15:09;;;;;;;6.00;2.53;;;;;;;11.39;100.00;100809.03;6274748;28;20412;-74
2022/10/22 05:18:12;;;;;;;4.00;2.33;;;;;;;11.35;100.00;100810.13;6274929;28;20155;-74
2022/10/22 05:21:16;;;;;;;3.15;2.20;;;;;;;11.34;100.00;100816.31;6275222;28;20056;-74
2022/10/22 05:24:17;;;;;;;2.97;1.95;;;;;;;11.33;100.00;100815.47;6274540;28;20055;-74
2022/10/22 05:27:18;;;;;;;4.20;2.17;;;;;;;11.30;100.00;100813.00;6275034;28;20052;-74
2022/10/22 05:30:20;;;;;;;2.92;2.17;;;;;;;11.29;100.00;100811.31;6274573;28;20056;-75
2022/10/22 05:33:23;;;;;;;4.28;2.10;;;;;;;11.25;100.00;100822.09;6275062;28;20045;-74
2022/10/22 05:36:24;;;;;;;3.78;2.33;;;;;;;11.23;100.00;100819.56;6274371;28;20056;-74
2022/10/22 05:39:26;;;;;;;3.63;1.85;;;;;;;11.21;100.00;100821.41;6274611;28;20054;-74
2022/10/22 05:42:31;;;;;;;2.92;1.90;;;;;;;11.18;100.00;100822.44;6274674;28;20049;-74
2022/10/22 05:45:36;;;;;;;3.08;1.73;;;;;;;11.14;100.00;100820.06;6274131;28;20045;-74
2022/10/22 05:48:39;;;;;;;4.75;2.53;;;;;;;11.11;100.00;100812.34;6275055;28;20049;-74
2022/10/22 05:51:40;;;;;;;3.00;1.83;;;;;;;11.10;100.00;100818.53;6273844;28;20049;-74
2022/10/22 05:54:42;;;;;;;3.00;2.13;;;;;;;11.09;100.00;100817.69;6274065;28;20060;-74
2022/10/22 05:57:44;;;;;;;3.63;2.20;;;;;;;11.07;100.00;100816.06;6273986;28;20049;-74
2022/10/22 06:00:45;;;;;;;3.75;2.10;;;;;;;11.02;100.00;100820.72;6274304;28;20053;-74
2022/10/22 06:03:48;;;;;;;3.35;2.38;;;;;;;11.01;100.00;100824.28;6273633;28;20056;-76
2022/10/22 06:06:52;;;;;;;6.53;2.55;;;;;;;10.92;100.00;100826.47;6271977;28;20052;-74
2022/10/22 06:09:53;;;;;;;3.30;1.83;;;;;;;10.90;100.00;100836.25;6260412;28;20053;-76
2022/10/22 06:12:55;;;;;;;3.80;2.53;;;;;;;10.89;100.00;100839.78;6258952;28;20045;-74
2022/10/22 06:15:56;;;;;;;4.57;2.30;;;;;;;10.89;100.00;100838.94;6251063;28;20059;-74
2022/10/22 06:19:00;;;;;;;4.72;2.28;;;;;;;10.89;100.00;100842.41;6259184;28;20421;-74
2022/10/22 06:22:03;;;;;;;6.20;2.38;;;;;;;10.85;100.00;100840.00;6273473;28;20114;-74
2022/10/22 06:25:07;;;;;;;3.15;1.65;;;;;;;10.81;100.00;100841.09;6270438;28;20053;-75
2022/10/22 06:28:08;;;;;;;2.65;1.85;;;;;;;10.81;100.00;100855.13;6253700;28;20049;-74
2022/10/22 06:31:10;;;;;;;2.95;2.03;;;;;;;10.77;100.00;100856.22;6252889;28;20049;-75
2022/10/22 06:34:13;;;;;;;4.90;1.80;;;;;;;10.78;100.00;100850.03;6258680;28;20572;-74
2022/10/22 06:37:15;;;;;;;3.35;2.33;;;;;;;10.79;100.00;100858.75;6258853;28;20060;-74
2022/10/22 06:40:17;;;;;;;5.53;2.13;;;;;;;10.79;100.00;100864.00;6268476;28;20424;-74
2022/10/22 06:43:19;;;;;;;2.72;2.00;;;;;;;10.77;100.00;100864.09;6272935;28;20385;-74
2022/10/22 06:46:21;;;;;;;4.28;2.20;;;;;;;10.78;100.00;100872.84;6272706;28;20474;-74
2022/10/22 06:49:24;;;;;;;3.55;1.92;;;;;;;10.76;100.00;100879.94;6272207;28;20488;-74
2022/10/22 06:52:25;;;;;;;2.65;1.98;;;;;;;10.73;100.00;100880.13;6273043;28;20049;-74
2022/10/22 06:55:27;;;;;;;3.53;2.20;;;;;;;10.74;100.00;100887.06;6272094;28;20515;-74
2022/10/22 06:58:28;;;;;;;3.20;2.00;;;;;;;10.74;100.00;100892.31;6257768;28;20064;-74
2022/10/22 07:01:32;;;;;;;3.20;1.95;;;;;;;10.77;100.00;100897.44;6259257;28;20061;-74
2022/10/22 07:04:36;;;;;;;5.75;2.13;;;;;;;10.78;100.00;100901.75;6256800;28;20054;-74
2022/10/22 07:07:37;;;;;;;3.50;1.85;;;;;;;10.78;100.00;100901.75;6257412;28;20418;-74
2022/10/22 07:10:38;;;;;;;3.40;1.98;;;;;;;10.82;100.00;100914.66;6257688;28;20159;-74
2022/10/22 07:13:40;;;;;;;3.90;2.20;;;;;;;10.87;100.00;100915.25;6259008;28;20053;-74
2022/10/22 07:16:42;;;;;;;3.03;1.95;;;;;;;10.94;100.00;100918.41;6257662;28;20435;-74
2022/10/22 07:19:44;;;;;;;3.05;2.20;;;;;;;10.98;100.00;100922.59;6259243;28;20049;-74
2022/10/22 07:22:46;;;;;;;6.30;3.50;;;;;;;11.06;100.00;100924.81;6256729;28;20053;-75
2022/10/22 07:25:47;;;;;;;4.63;2.83;;;;;;;11.13;100.00;100928.84;6256582;28;20523;-74
2022/10/22 07:28:48;;;;;;;3.00;1.80;;;;;;;11.18;100.00;100930.28;6259093;28;20044;-74
2022/10/22 07:31:50;;;;;;;9.52;2.47;;;;;;;11.25;100.00;100935.22;6256684;28;20049;-74
2022/10/22 07:34:53;;;;;;;4.43;1.92;;;;;;;11.30;100.00;100933.19;6258411;28;20049;-74
2022/10/22 07:37:54;;;;;;;4.85;2.00;;;;;;;11.37;100.00;100943.31;6257437;28;20041;-74
2022/10/22 07:40:56;;;;;;;2.45;1.63;;;;;;;11.46;100.00;100938.50;6257712;28;20045;-74
2022/10/22 07:43:58;;;;;;;4.88;2.05;;;;;;;11.56;100.00;100951.06;6257233;28;20408;-75
2022/10/22 07:46:59;;;;;;;5.25;2.28;;;;;;;11.64;100.00;100955.91;6257549;28;20045;-75
2022/10/22 07:50:02;;;;;;;2.78;1.85;;;;;;;11.75;100.00;100950.91;6258294;28;20501;-74
2022/10/22 07:53:03;;;;;;;2.50;1.67;;;;;;;11.83;100.00;100956.63;6265863;28;20056;-74
2022/10/22 07:56:05;;;;;;;3.83;2.20;;;;;;;11.95;100.00;100956.91;6271455;28;20060;-74
2022/10/22 07:59:07;;;;;;;4.07;1.95;;;;;;;12.02;100.00;100952.97;6272036;28;20049;-74
2022/10/22 08:02:09;;;;;;;7.90;1.85;;;;;;;12.08;100.00;100955.25;6271386;28;20055;-74
2022/10/22 08:05:13;;;;;;;5.53;1.98;;;;;;;12.15;100.00;100952.19;6271340;28;20067;-74
2022/10/22 08:08:16;;;;;;;1.90;1.40;;;;;;;12.25;100.00;100955.16;6271422;28;20048;-74
2022/10/22 08:11:17;;;;;;;4.38;1.50;;;;;;;12.31;100.00;100957.47;6258885;28;20049;-74
2022/10/22 08:14:18;;;;;;;6.10;1.88;;;;;;;12.38;100.00;100964.06;6256225;28;20057;-74
2022/10/22 08:17:20;;;;;;;2.03;1.60;;;;;;;12.46;100.00;100961.00;6258827;28;20055;-74
2022/10/22 08:20:23;;;;;;;3.03;1.58;;;;;;;12.58;100.00;100962.94;6261887;28;20521;-74
2022/10/22 08:23:24;;;;;;;2.40;1.42;;;;;;;12.64;100.00;100962.56;6271906;28;20045;-74
2022/10/22 08:26:26;;;;;;;2.83;1.35;;;;;;;12.70;100.00;100958.72;6271427;28;20049;-74
2022/10/22 08:29:27;;;;;;;2.38;2.03;;;;;;;12.77;100.00;100957.44;6271210;28;20049;-74
2022/10/22 08:32:29;;;;;;;2.25;1.33;;;;;;;12.84;100.00;100964.00;6271452;28;20055;-74
2022/10/22 08:35:31;;;;;;;2.97;1.38;;;;;;;12.88;100.00;100951.50;6271052;28;20389;-74
2022/10/22 08:38:34;;;;;;;3.22;1.48;;;;;;;12.94;100.00;100956.41;6337398;23;20056;-79
2022/10/22 08:41:45;;;;;;;6.88;1.77;;;;;;;13.01;100.00;100967.44;6245925;28;20054;-78
2022/10/22 08:45:08;;;;;;;2.65;1.77;;;;;;;13.05;100.00;100967.16;6270040;28;20420;-78
2022/10/22 08:48:21;;;;;;;4.47;1.17;;;;;;;13.11;100.00;100968.59;6271826;28;20053;-79
2022/10/22 08:51:27;;;;;;;2.83;1.48;;;;;;;13.20;100.00;100968.03;6271097;28;20068;-80
2022/10/22 08:54:36;;;;;;;2.05;1.50;;;;;;;13.28;100.00;100968.44;6270934;28;20049;-80
2022/10/22 08:57:50;;;;;;;1.85;1.33;;;;;;;13.41;100.00;100971.19;6271662;28;20049;-79
2022/10/22 09:00:58;;;;;;;2.50;1.52;;;;;;;13.43;100.00;100972.78;6271102;28;20053;-79
2022/10/22 09:04:10;;;;;;;3.90;1.40;;;;;;;13.43;100.00;100975.41;6271607;28;20060;-78
2022/10/22 09:07:12;;;;;;;2.97;1.42;;;;;;;13.49;100.00;100973.34;6272394;28;20052;-79
2022/10/22 09:10:14;;;;;;;2.88;1.92;;;;;;;13.54;100.00;100972.13;6272342;28;20045;-80
2022/10/22 09:13:18;;;;;;;1.75;1.42;;;;;;;13.63;100.00;100984.75;6261721;28;20053;-79
2022/10/22 09:16:24;;;;;;;3.90;2.08;;;;;;;13.82;100.00;100984.47;6261888;28;20056;-79
2022/10/22 09:19:35;;;;;;;8.40;1.90;;;;;;;13.95;100.00;100984.53;6263719;28;20042;-79
2022/10/22 09:22:46;;;;;;;3.70;1.65;;;;;;;14.03;100.00;100991.94;6268129;28;20049;-79
2022/10/22 09:25:50;;;;;;;2.35;1.67;;;;;;;14.06;100.00;100986.47;6271674;28;20053;-79
2022/10/22 09:28:51;;;;;;;3.22;1.92;;;;;;;14.07;100.00;101001.38;6252573;28;20409;-78
2022/10/22 09:31:53;;;;;;;1.67;1.30;;;;;;;14.08;100.00;100988.09;6254894;28;20053;-78
2022/10/22 09:34:57;;;;;;;3.88;1.60;;;;;;;14.11;100.00;100995.81;6252177;28;20527;-78
2022/10/22 09:38:07;;;;;;;2.47;1.55;;;;;;;14.20;100.00;101003.13;6252021;28;20497;-79
2022/10/22 09:41:09;;;;;;;3.42;2.05;;;;;;;14.23;100.00;100999.47;6267879;28;20048;-78
2022/10/22 09:44:13;;;;;;;3.10;1.88;;;;;;;14.30;100.00;100999.91;6272437;28;20041;-78
2022/10/22 09:47:29;;;;;;;5.28;1.92;;;;;;;14.40;100.00;101004.50;6288829;28;20048;-81
2022/10/22 09:50:40;;;;;;;2.22;1.77;;;;;;;14.58;100.00;101004.25;6290350;28;20041;-73
2022/10/22 09:53:45;;;;;;;4.53;1.83;;;;;;;14.64;100.00;101007.38;6300215;28;20393;-73
2022/10/22 09:56:52;;;;;;;3.72;1.92;;;;;;;14.77;100.00;101012.69;6303464;28;20044;-77
2022/10/22 09:59:56;;;;;;;3.28;1.88;;;;;;;14.91;100.00;101002.03;6302123;28;20048;-75
2022/10/22 10:02:59;;;;;;;9.82;2.00;;;;;;;14.91;100.00;101006.47;6299145;28;20455;-78
2022/10/22 10:06:02;;;;;;;3.85;1.98;;;;;;;14.99;100.00;101006.81;6300418;28;20064;-77
2022/10/22 10:09:14;;;;;;;5.53;1.98;;;;;;;15.03;100.00;101005.63;6300837;28;20098;-74
2022/10/22 10:12:29;;;;;;;4.32;2.05;;;;;;;15.13;100.00;101009.38;6300145;28;20048;-77
2022/10/22 10:15:38;;;;;;;4.93;1.98;;;;;;;15.25;100.00;101022.72;6300113;28;20044;-74
2022/10/22 10:18:52;;;;;;;4.13;1.88;;;;;;;15.31;100.00;101006.41;6299516;28;20048;-75
2022/10/22 10:22:02;;;;;;;3.00;1.92;;;;;;;15.41;100.00;101012.78;6299119;28;20052;-75
2022/10/22 10:25:23;;;;;;;4.60;2.00;;;;;;;15.43;100.00;101022.28;6298124;28;20056;-75
2022/10/22 10:28:42;;;;;;;2.80;2.00;;;;;;;15.61;100.00;101027.25;6299033;28;20067;-75
2022/10/22 10:31:52;;;;;;;6.80;1.55;;;;;;;15.72;100.00;101030.06;6298739;28;20059;-75
2022/10/22 10:35:04;;;;;;;2.10;1.70;;;;;;;15.88;100.00;101030.66;6298107;28;20049;-75
2022/10/22 10:38:27;;;;;;;9.43;2.63;;;;;;;15.92;100.00;101024.19;6300034;28;20044;-75
2022/10/22 10:41:42;;;;;;;3.45;1.73;;;;;;;15.91;100.00;101026.94;6298822;28;20059;-76
2022/10/22 10:44:55;;;;;;;2.25;1.42;;;;;;;15.96;100.00;101033.59;6299165;28;20052;-75
2022/10/22 10:48:12;;;;;;;4.75;1.60;;;;;;;16.01;100.00;101030.63;6300102;28;20048;-75
2022/10/22 10:51:27;;;;;;;4.05;2.00;;;;;;;16.11;100.00;101030.81;6298105;28;20052;-76
2022/10/22 10:54:43;;;;;;;2.55;1.55;;;;;;;16.12;100.00;101029.84;6292428;28;20048;-76
2022/10/22 10:57:55;;;;;;;7.80;2.22;;;;;;;16.21;100.00;101039.78;6281563;28;20052;-76
2022/10/22 11:01:00;;;;;;;3.25;1.70;;;;;;;16.19;100.00;101037.25;6285848;28;20048;-76
2022/10/22 11:04:41;;;;;;;2.15;1.30;;;;;;;16.25;100.00;101028.00;6283453;28;20393;-77
2022/10/22 11:07:47;;;;;;;2.80;1.88;;;;;;;16.40;100.00;101034.03;6257602;28;20055;-77
2022/10/22 11:10:54;;;;;;;5.53;2.10;;;;;;;16.58;100.00;101029.13;6284996;28;20052;-77
2022/10/22 11:14:01;;;;;;;4.22;1.90;;;;;;;16.59;100.00;101036.16;6284615;28;20048;-76
2022/10/22 11:17:06;;;;;;;5.95;2.00;;;;;;;16.70;100.00;101037.03;6292910;28;20044;-75
2022/10/22 11:20:15;;;;;;;3.50;2.00;;;;;;;16.95;100.00;101030.78;6288038;28;20053;-76
2022/10/22 11:23:25;;;;;;;7.93;1.63;;;;;;;17.14;100.00;101034.69;6278213;28;20484;-76
2022/10/22 11:26:33;;;;;;;;;;;;;;;17.01;100.00;101041.91;6279492;28;20056;-76
2022/10/22 11:29:41;;;;;;;2.30;1.40;;;;;;;16.95;100.00;101040.56;6292015;28;19920;-75
2022/10/22 11:32:46;;;;;;;6.68;1.65;;;;;;;16.84;100.00;101043.16;6269615;28;20295;-75
2022/10/22 11:35:48;;;;;;;5.70;2.22;;;;;;;16.87;100.00;101045.59;6286939;28;20415;-72
2022/10/22 11:38:51;;;;;;;3.40;1.30;;;;;;;16.87;100.00;101051.75;6276573;28;20044;-75
2022/10/22 11:41:53;;;;;;;4.78;1.33;;;;;;;16.81;100.00;101046.06;6288380;28;20496;-75
2022/10/22 11:45:06;;;;;;;1.63;1.20;;;;;;;16.82;100.00;101047.75;6296188;28;20048;-75
2022/10/22 11:48:17;;;;;;;4.63;1.33;;;;;;;16.74;100.00;101056.28;6296342;28;20052;-75
2022/10/22 11:51:35;;;;;;;2.38;1.33;;;;;;;16.65;100.00;101054.28;6296434;28;20040;-75
2022/10/22 11:54:44;;;;;;;6.30;1.83;;;;;;;16.60;100.00;101057.25;6296415;28;20049;-75
2022/10/22 11:57:47;;;;;;;12.27;1.77;;;;;;;16.57;100.00;101051.34;6296443;28;20044;-75
2022/10/22 12:00:50;;;;;;;7.63;1.20;;;;;;;16.46;100.00;101060.94;6296356;28;20048;-75
2022/10/22 12:04:12;;;;;;;4.05;1.60;;;;;;;16.49;100.00;101055.41;6296517;28;20044;-75
2022/10/22 12:07:32;;;;;;;7.60;1.45;;;;;;;16.41;100.00;101055.13;6296144;28;20055;-76
2022/10/22 12:10:36;;;;;;;5.10;1.58;;;;;;;16.46;100.00;101057.44;6295913;28;20045;-76
2022/10/22 12:13:57;;;;;;;7.13;1.38;;;;;;;16.56;100.00;101050.50;6296364;28;20059;-76
2022/10/22 12:17:09;;;;;;;7.20;2.10;;;;;;;16.64;100.00;101052.59;6276116;28;20056;-76
2022/10/22 12:20:13;;;;;;;4.28;1.40;;;;;;;16.67;100.00;101050.56;6265390;28;20527;-76
2022/10/22 12:23:14;;;;;;;1.98;1.15;;;;;;;16.75;100.00;101047.34;6275730;28;20053;-76
2022/10/22 12:26:27;;;;;;;1.75;1.10;;;;;;;16.85;100.00;101043.06;6267948;28;20053;-76
2022/10/22 12:29:32;;;;;;;2.72;1.02;;;;;;;16.78;100.00;101048.94;6262536;28;20052;-74
2022/10/22 12:32:36;;;;;;;6.43;1.65;;;;;;;16.79;100.00;101042.66;6254004;28;20041;-76
2022/10/22 12:35:43;;;;;;;3.97;1.38;;;;;;;16.84;100.00;101037.84;6264235;28;20497;-75
2022/10/22 12:38:46;;;;;;;2.50;1.13;;;;;;;17.15;100.00;101041.69;6268259;28;20045;-74
2022/10/22 12:41:48;;;;;;;2.28;1.00;;;;;;;17.49;100.00;101039.97;6258514;28;20053;-75
2022/10/22 12:44:55;;;;;;;1.75;0.98;;;;;;;17.48;100.00;101036.44;6271327;28;20428;-77
2022/10/22 12:48:00;;;;;;;6.85;0.85;;;;;;;17.29;100.00;101045.94;6278019;28;20052;-74
2022/10/22 12:51:05;;;;;;;4.28;1.05;;;;;;;17.06;100.00;101045.06;6290416;28;20514;-75
2022/10/22 12:54:10;;;;;;;4.32;1.30;;;;;;;16.90;100.00;101043.56;6279750;28;20411;-80
2022/10/22 12:57:14;;;;;;;4.03;1.30;;;;;;;16.85;100.00;101036.88;6285307;28;20044;-82
2022/10/22 13:00:21;;;;;;;1.77;0.80;;;;;;;16.83;100.00;101057.41;6296509;28;20048;-79
2022/10/22 13:03:30;;;;;;;3.95;1.27;;;;;;;16.82;100.00;101047.75;6299834;28;20441;-79
2022/10/22 13:06:34;;;;;;;4.88;1.30;;;;;;;17.04;100.00;101041.69;6291487;28;20071;-79
2022/10/22 13:09:40;;;;;;;1.40;1.02;;;;;;;17.07;100.00;101044.09;6292524;28;20393;-81
2022/10/22 13:12:48;;;;;;;3.28;1.10;;;;;;;16.93;100.00;101050.44;6296244;28;20512;-80
2022/10/22 13:15:50;;;;;;;4.63;0.90;;;;;;;16.95;100.00;101048.53;6273324;28;20044;-80
2022/10/22 13:18:53;;;;;;;2.25;0.82;;;;;;;16.89;100.00;101059.59;6295852;28;20492;-82
2022/10/22 13:21:55;;;;;;;3.08;1.15;;;;;;;16.93;100.00;101053.09;6301468;28;20053;-81
2022/10/22 13:24:58;;;;;;;6.63;1.15;;;;;;;16.99;100.00;101050.84;6289901;28;20053;-83
2022/10/22 13:28:02;;;;;;;1.58;0.70;;;;;;;17.14;98.97;101042.66;6291404;28;20056;-82
2022/10/22 13:31:11;;;;;;;0.93;0.63;;;;;;;17.21;96.33;101042.09;6279957;28;20319;-83
2022/10/22 13:34:18;;;;;;;0.55;0.45;;;;;;;17.13;95.08;101047.13;6266437;28;20052;-81
2022/10/22 13:37:20;;;;;;;0.47;0.47;;;;;;;17.09;96.56;101043.03;6296344;28;20053;-84
2022/10/22 13:40:21;;;;;;;3.13;0.60;;;;;;;17.01;95.37;101040.09;6291990;28;20044;-82
2022/10/22 13:43:24;;;;;;;1.67;0.68;;;;;;;16.96;95.63;101042.25;6305035;28;20050;-80
2022/10/22 13:46:28;;;;;;;1.55;0.65;;;;;;;16.94;95.39;101047.69;6302067;28;20049;-81
2022/10/22 13:49:31;;;;;;;2.25;0.55;;;;;;;17.02;95.38;101041.78;6303357;28;20049;-81
2022/10/22 13:52:37;;;;;;;3.55;0.65;;;;;;;16.98;96.75;101050.94;6301822;28;20432;-73
2022/10/22 13:55:39;;;;;;;3.03;0.60;;;;;;;16.98;98.96;101053.59;6283772;28;20652;-79
2022/10/22 13:58:41;;;;;;;1.08;0.60;;;;;;;17.09;96.49;101053.63;6280490;28;20053;-80
2022/10/22 14:01:42;;;;;;;6.55;0.65;;;;;;;17.04;97.91;101058.47;6302468;28;20044;-80
2022/10/22 14:04:45;;;;;;;6.13;0.80;;;;;;;17.02;97.76;101070.13;6300163;28;20061;-81
2022/10/22 14:07:47;;;;;;;2.28;0.90;;;;;;;16.92;97.95;101070.00;6300533;28;20428;-79
2022/10/22 14:10:49;;;;;;;0.77;0.68;;;;;;;16.84;100.00;101067.91;6300674;28;20397;-81